Time;durP1;ratioP1;P1;durP2;ratioP2;P2;SDS_P1;SDS_P2;PMS_P1;PMS_P2;Temp;Humidity;BMP_temperature;BMP_pressure;BME280_temperature;BME280_humidity;BME280_pressure;Samples;Min_cycle;Max_cycle;Signal;HPM_P1;HPM_P2
2023/12/05 00:00:05;;;;;;;13.77;9.00;;;1.90;99.90;;;;;;5021457;28;20211;-72
2023/12/05 00:02:30;;;;;;;10.90;8.20;;;1.90;99.90;;;;;;5033542;28;20285;-73
2023/12/05 00:04:56;;;;;;;11.37;9.00;;;1.90;99.90;;;;;;5025644;28;20521;-73
2023/12/05 00:07:23;;;;;;;11.20;8.30;;;2.00;99.90;;;;;;5022912;28;20171;-73
2023/12/05 00:09:49;;;;;;;8.73;7.07;;;2.00;99.90;;;;;;5022818;28;20221;-73
2023/12/05 00:12:15;;;;;;;9.17;7.00;;;2.00;99.90;;;;;;5024507;28;20445;-73
2023/12/05 00:14:40;;;;;;;10.63;7.63;;;2.10;99.90;;;;;;5011899;28;20175;-73
2023/12/05 00:17:06;;;;;;;11.23;6.77;;;2.10;99.90;;;;;;5014698;28;20489;-73
2023/12/05 00:19:32;;;;;;;7.87;7.07;;;2.20;99.90;;;;;;5022670;28;20635;-73
2023/12/05 00:21:57;;;;;;;7.83;6.43;;;2.20;99.90;;;;;;5022038;28;20221;-74
2023/12/05 00:24:23;;;;;;;8.57;6.70;;;2.20;99.90;;;;;;5014480;28;20182;-73
2023/12/05 00:26:49;;;;;;;7.80;6.30;;;2.20;99.90;;;;;;5005882;28;20298;-74
2023/12/05 00:29:14;;;;;;;6.20;5.23;;;2.30;99.90;;;;;;5018747;28;20297;-73
2023/12/05 00:31:40;;;;;;;8.30;6.33;;;2.30;99.90;;;;;;5019026;28;20186;-74
2023/12/05 00:34:06;;;;;;;7.67;6.13;;;2.30;99.90;;;;;;5016120;28;20686;-73
2023/12/05 00:36:31;;;;;;;7.43;4.83;;;2.40;99.90;;;;;;5030466;28;20196;-73
2023/12/05 00:38:57;;;;;;;6.30;4.67;;;2.40;99.90;;;;;;5025622;28;20199;-73
2023/12/05 00:41:24;;;;;;;8.30;5.17;;;2.50;99.90;;;;;;5018085;28;20207;-73
2023/12/05 00:43:51;;;;;;;5.10;4.60;;;2.50;99.90;;;;;;5028563;28;20253;-73
2023/12/05 00:46:16;;;;;;;7.93;5.97;;;2.50;99.90;;;;;;5028372;28;20517;-73
2023/12/05 00:48:42;;;;;;;6.43;5.13;;;2.40;99.90;;;;;;5025809;28;20994;-73
2023/12/05 00:51:08;;;;;;;8.60;4.73;;;2.50;99.90;;;;;;5019704;28;20596;-73
2023/12/05 00:53:34;;;;;;;5.93;5.07;;;2.50;99.90;;;;;;5014287;28;20450;-73
2023/12/05 00:55:59;;;;;;;10.20;5.53;;;2.40;99.90;;;;;;5012148;28;20179;-73
2023/12/05 00:58:25;;;;;;;5.83;4.80;;;2.50;99.90;;;;;;5028185;28;20175;-73
2023/12/05 01:00:50;;;;;;;6.37;4.77;;;2.50;99.90;;;;;;5010994;28;20230;-73
2023/12/05 01:03:16;;;;;;;5.33;4.63;;;2.50;99.90;;;;;;5020087;28;20234;-73
2023/12/05 01:05:42;;;;;;;6.03;5.40;;;2.50;99.90;;;;;;5012446;28;20177;-73
2023/12/05 01:08:07;;;;;;;6.53;4.40;;;2.50;99.90;;;;;;5020030;28;20182;-73
2023/12/05 01:10:33;;;;;;;5.60;5.10;;;2.50;99.90;;;;;;5016259;28;20843;-73
2023/12/05 01:12:58;;;;;;;6.57;4.27;;;2.50;99.90;;;;;;4999183;28;20276;-73
2023/12/05 01:15:24;;;;;;;6.53;4.77;;;2.50;99.90;;;;;;5013144;28;20175;-73
2023/12/05 01:17:50;;;;;;;5.53;4.17;;;2.50;99.90;;;;;;5012099;28;20591;-73
2023/12/05 01:20:16;;;;;;;6.07;4.30;;;2.60;99.90;;;;;;5012054;28;20194;-73
2023/12/05 01:22:42;;;;;;;5.03;4.30;;;2.50;99.90;;;;;;5009857;28;20770;-73
2023/12/05 01:25:07;;;;;;;5.53;4.97;;;2.60;99.90;;;;;;5030332;28;20186;-73
2023/12/05 01:27:33;;;;;;;5.40;4.67;;;2.60;99.90;;;;;;5029309;28;20170;-73
2023/12/05 01:29:59;;;;;;;5.97;4.47;;;2.60;99.90;;;;;;5020748;28;20179;-73
2023/12/05 01:32:24;;;;;;;6.63;4.97;;;2.60;99.90;;;;;;5024507;28;20502;-73
2023/12/05 01:34:50;;;;;;;6.83;5.33;;;2.70;99.90;;;;;;5023533;28;20213;-73
2023/12/05 01:37:15;;;;;;;6.70;5.60;;;2.70;99.90;;;;;;5026852;28;20178;-73
2023/12/05 01:39:41;;;;;;;6.10;4.80;;;2.70;99.90;;;;;;5011123;28;20604;-73
2023/12/05 01:42:07;;;;;;;7.97;5.90;;;2.70;99.90;;;;;;5011685;28;20273;-73
2023/12/05 01:44:32;;;;;;;6.10;4.83;;;2.70;99.90;;;;;;5018491;28;20175;-73
2023/12/05 01:46:59;;;;;;;7.13;5.10;;;2.70;99.90;;;;;;5012216;28;20562;-73
2023/12/05 01:49:24;;;;;;;7.80;4.53;;;2.80;99.90;;;;;;5011917;28;20175;-73
2023/12/05 01:51:52;;;;;;;5.67;5.07;;;2.70;99.90;;;;;;5018518;28;20471;-73
2023/12/05 01:54:18;;;;;;;7.43;4.80;;;2.70;99.90;;;;;;5019111;28;20261;-73
2023/12/05 01:56:44;;;;;;;7.23;5.70;;;2.60;99.90;;;;;;5020080;28;20429;-73
2023/12/05 01:59:10;;;;;;;5.90;4.63;;;2.60;99.90;;;;;;5011906;28;21118;-73
2023/12/05 02:01:36;;;;;;;7.37;5.40;;;2.60;99.90;;;;;;5011692;28;20209;-73
2023/12/05 02:04:02;;;;;;;6.23;5.63;;;2.60;99.90;;;;;;5006191;28;20461;-73
2023/12/05 02:06:28;;;;;;;6.60;5.10;;;2.60;99.90;;;;;;5013541;28;20434;-73
2023/12/05 02:08:54;;;;;;;6.60;5.27;;;2.60;99.90;;;;;;5020395;28;20480;-73
2023/12/05 02:11:19;;;;;;;12.70;5.33;;;2.60;99.90;;;;;;5015429;28;20249;-73
2023/12/05 02:13:47;;;;;;;8.50;6.50;;;2.60;99.90;;;;;;5015195;28;20187;-73
2023/12/05 02:16:37;;;;;;;7.00;5.80;;;2.50;99.90;;;;;;5023156;28;20183;-73
2023/12/05 02:19:24;;;;;;;7.70;5.83;;;2.50;99.90;;;;;;5006745;28;20488;-73
2023/12/05 02:21:53;;;;;;;7.43;6.20;;;2.50;99.90;;;;;;5022972;28;20503;-73
2023/12/05 02:24:46;;;;;;;8.33;4.73;;;2.50;99.90;;;;;;5018051;28;20456;-73
2023/12/05 02:27:36;;;;;;;7.97;6.70;;;2.50;99.90;;;;;;5016887;28;20430;-73
2023/12/05 02:30:01;;;;;;;7.80;5.87;;;2.60;99.90;;;;;;5026236;28;20429;-73
2023/12/05 02:32:27;;;;;;;7.87;5.73;;;2.60;99.90;;;;;;5034883;28;20433;-73
2023/12/05 02:34:52;;;;;;;6.73;5.90;;;2.60;99.90;;;;;;5032685;28;20189;-73
2023/12/05 02:37:29;;;;;;;9.23;7.17;;;2.50;99.90;;;;;;5008045;28;20175;-73
2023/12/05 02:40:10;;;;;;;8.30;6.50;;;2.50;99.90;;;;;;5032438;28;20228;-73
2023/12/05 02:42:37;;;;;;;7.30;6.07;;;2.60;99.90;;;;;;5029275;28;20460;-73
2023/12/05 02:45:07;;;;;;;8.97;7.87;;;2.60;99.90;;;;;;5015912;28;20434;-73
2023/12/05 02:47:35;;;;;;;9.23;6.37;;;2.60;99.90;;;;;;5020653;28;20451;-73
2023/12/05 02:50:00;;;;;;;7.47;5.77;;;2.70;99.90;;;;;;5020847;28;20473;-73
2023/12/05 02:52:26;;;;;;;6.17;5.47;;;2.70;99.90;;;;;;5015983;28;20449;-73
2023/12/05 02:54:51;;;;;;;6.83;5.50;;;2.60;99.90;;;;;;5014788;28;20167;-73
2023/12/05 02:57:17;;;;;;;7.17;5.60;;;2.60;99.90;;;;;;5014244;28;20205;-73
2023/12/05 02:59:42;;;;;;;7.10;6.17;;;2.70;99.90;;;;;;5022379;28;20175;-73
2023/12/05 03:02:08;;;;;;;8.17;5.60;;;2.60;99.90;;;;;;5015355;28;20261;-73
2023/12/05 03:04:33;;;;;;;10.80;6.37;;;2.60;99.90;;;;;;5025966;28;20249;-72
2023/12/05 03:06:59;;;;;;;7.97;5.63;;;2.70;99.90;;;;;;5025637;28;20197;-73
2023/12/05 03:09:24;;;;;;;10.53;5.53;;;2.60;99.90;;;;;;5016508;28;20183;-73
2023/12/05 03:11:50;;;;;;;7.60;6.20;;;2.60;99.90;;;;;;5022144;28;20562;-73
2023/12/05 03:14:16;;;;;;;9.23;5.90;;;2.60;99.90;;;;;;5014153;28;20265;-73
2023/12/05 03:16:42;;;;;;;7.07;5.93;;;2.60;99.90;;;;;;5015997;28;20245;-73
2023/12/05 03:19:08;;;;;;;7.50;5.97;;;2.60;99.90;;;;;;5014665;28;20662;-72
2023/12/05 03:21:33;;;;;;;7.63;5.30;;;2.60;99.90;;;;;;5033116;28;20488;-72
2023/12/05 03:23:59;;;;;;;11.60;6.03;;;2.70;99.90;;;;;;5031049;28;20175;-72
2023/12/05 03:26:24;;;;;;;7.90;5.53;;;2.80;99.90;;;;;;5012798;28;20191;-72
2023/12/05 03:28:51;;;;;;;7.93;5.40;;;2.80;99.90;;;;;;5014149;28;20291;-72
2023/12/05 03:31:17;;;;;;;7.00;6.30;;;2.80;99.90;;;;;;5013824;28;20182;-72
2023/12/05 03:33:43;;;;;;;9.17;6.07;;;2.80;99.90;;;;;;5019565;28;20807;-72
2023/12/05 03:36:09;;;;;;;6.90;5.30;;;2.90;99.90;;;;;;5022148;28;20426;-72
2023/12/05 03:38:38;;;;;;;7.73;6.40;;;2.90;99.90;;;;;;5018430;28;20660;-72
2023/12/05 03:41:04;;;;;;;5.53;4.90;;;2.90;99.90;;;;;;5027329;28;20470;-70
2023/12/05 03:43:29;;;;;;;7.50;6.23;;;2.90;99.90;;;;;;5012630;28;20450;-72
2023/12/05 03:45:55;;;;;;;7.03;5.67;;;2.80;99.90;;;;;;5021571;28;20886;-72
2023/12/05 03:48:20;;;;;;;7.23;5.70;;;2.80;99.90;;;;;;5014591;28;20252;-73
2023/12/05 03:50:46;;;;;;;6.90;5.33;;;2.80;99.90;;;;;;5018103;28;20178;-73
2023/12/05 03:53:11;;;;;;;9.60;7.10;;;2.80;99.90;;;;;;5013293;28;20707;-72
2023/12/05 03:55:37;;;;;;;7.53;6.70;;;2.70;99.90;;;;;;5013596;28;20179;-72
2023/12/05 03:58:02;;;;;;;8.60;6.67;;;2.60;99.90;;;;;;5013866;28;20193;-72
2023/12/05 04:00:28;;;;;;;7.97;6.00;;;2.60;99.90;;;;;;5021204;28;20227;-72
2023/12/05 04:02:55;;;;;;;8.70;5.60;;;2.60;99.90;;;;;;5012634;28;20261;-73
2023/12/05 04:05:20;;;;;;;7.50;5.80;;;2.60;99.90;;;;;;5012791;28;20179;-72
2023/12/05 04:07:46;;;;;;;8.20;5.83;;;2.60;99.90;;;;;;5012405;28;20453;-72
2023/12/05 04:10:12;;;;;;;6.63;5.70;;;2.60;99.90;;;;;;5016891;28;20266;-72
2023/12/05 04:12:39;;;;;;;6.50;5.53;;;2.50;99.90;;;;;;5018676;28;20206;-73
2023/12/05 04:15:05;;;;;;;7.60;4.80;;;2.60;99.90;;;;;;5014751;28;20175;-72
2023/12/05 04:17:31;;;;;;;7.27;5.97;;;2.60;99.90;;;;;;5012547;28;20438;-72
2023/12/05 04:19:56;;;;;;;7.10;5.20;;;2.70;99.90;;;;;;5021994;28;20428;-72
2023/12/05 04:22:22;;;;;;;6.97;5.57;;;2.70;99.90;;;;;;5017879;28;20671;-72
2023/12/05 04:24:47;;;;;;;9.77;5.10;;;2.70;99.90;;;;;;5010793;28;20202;-72
2023/12/05 04:27:13;;;;;;;7.63;5.77;;;2.70;99.90;;;;;;5021072;28;20283;-72
2023/12/05 04:29:39;;;;;;;6.40;5.00;;;2.80;99.90;;;;;;5006407;28;20535;-72
2023/12/05 04:32:05;;;;;;;5.37;4.80;;;2.80;99.90;;;;;;5014494;28;20201;-72
2023/12/05 04:34:30;;;;;;;6.50;5.67;;;2.80;99.90;;;;;;5028917;28;20429;-72
2023/12/05 04:36:56;;;;;;;8.07;5.90;;;2.80;99.90;;;;;;5026465;28;20182;-72
2023/12/05 04:39:21;;;;;;;7.53;5.80;;;2.80;99.90;;;;;;5012473;28;20179;-72
2023/12/05 04:41:47;;;;;;;9.10;5.93;;;2.80;99.90;;;;;;5024156;28;20218;-72
2023/12/05 04:44:12;;;;;;;6.30;5.37;;;2.80;99.90;;;;;;4996778;28;20207;-72
2023/12/05 04:46:38;;;;;;;6.70;6.00;;;2.80;99.90;;;;;;5015939;28;20281;-72
2023/12/05 04:49:05;;;;;;;5.47;4.03;;;2.80;99.90;;;;;;5015295;28;20194;-72
2023/12/05 04:51:30;;;;;;;6.77;5.10;;;2.90;99.90;;;;;;5017990;28;20571;-72
2023/12/05 04:53:56;;;;;;;6.63;4.47;;;2.90;99.90;;;;;;5019553;28;20422;-72
2023/12/05 04:56:22;;;;;;;7.80;5.60;;;3.00;99.90;;;;;;5019741;28;20186;-72
2023/12/05 04:58:48;;;;;;;7.07;4.73;;;3.10;99.90;;;;;;5020347;28;20174;-72
2023/12/05 05:01:14;;;;;;;6.33;4.23;;;3.10;99.90;;;;;;5023724;28;20222;-72
2023/12/05 05:03:40;;;;;;;7.83;5.10;;;3.10;99.90;;;;;;5022475;28;20993;-72
2023/12/05 05:06:05;;;;;;;5.03;3.70;;;3.20;99.90;;;;;;5023187;28;20446;-72
2023/12/05 05:08:31;;;;;;;6.53;4.43;;;3.20;99.90;;;;;;5013747;28;20636;-72
2023/12/05 05:10:56;;;;;;;10.30;5.97;;;3.30;99.90;;;;;;5009508;28;20235;-72
2023/12/05 05:13:22;;;;;;;5.40;4.90;;;3.30;99.90;;;;;;5013698;28;20240;-72
2023/12/05 05:15:47;;;;;;;9.80;5.47;;;3.30;99.90;;;;;;5012282;28;20229;-72
2023/12/05 05:18:13;;;;;;;6.70;4.83;;;3.20;99.90;;;;;;5020409;28;20641;-72
2023/12/05 05:20:38;;;;;;;5.70;4.67;;;3.20;99.90;;;;;;5011659;28;20641;-72
2023/12/05 05:23:04;;;;;;;7.70;5.43;;;3.10;99.90;;;;;;5015752;28;20558;-72
2023/12/05 05:25:30;;;;;;;8.37;4.80;;;3.10;99.90;;;;;;5021191;28;20221;-72
2023/12/05 05:27:55;;;;;;;5.43;3.70;;;3.10;99.90;;;;;;5020055;28;20166;-72
2023/12/05 05:30:21;;;;;;;7.50;4.13;;;3.00;99.90;;;;;;5012115;28;20644;-72
2023/12/05 05:32:46;;;;;;;6.73;4.20;;;3.10;99.90;;;;;;5011609;28;20218;-72
2023/12/05 05:35:12;;;;;;;4.67;3.40;;;3.00;99.90;;;;;;5026457;28;20182;-72
2023/12/05 05:37:38;;;;;;;5.40;4.00;;;3.00;99.90;;;;;;5020119;28;20325;-72
2023/12/05 05:40:03;;;;;;;7.57;4.00;;;3.00;99.90;;;;;;5012968;28;20221;-72
2023/12/05 05:42:29;;;;;;;11.63;5.33;;;3.00;99.90;;;;;;5017460;28;20670;-72
2023/12/05 05:44:54;;;;;;;8.20;4.50;;;3.00;99.90;;;;;;5030080;28;20189;-72
2023/12/05 05:47:20;;;;;;;6.03;4.17;;;3.00;99.90;;;;;;5015408;28;20202;-72
2023/12/05 05:49:47;;;;;;;17.50;5.53;;;3.00;99.90;;;;;;5015698;28;20171;-72
2023/12/05 05:52:12;;;;;;;6.40;4.23;;;3.00;99.90;;;;;;5014949;28;20209;-72
2023/12/05 05:54:38;;;;;;;5.60;5.07;;;3.00;99.90;;;;;;5022376;28;20429;-72
2023/12/05 05:57:04;;;;;;;4.70;4.00;;;2.90;99.90;;;;;;5016310;28;20186;-72
2023/12/05 05:59:29;;;;;;;4.80;4.30;;;2.90;99.90;;;;;;5022397;28;20609;-72
2023/12/05 06:01:55;;;;;;;10.50;5.10;;;2.90;99.90;;;;;;5013328;28;20214;-72
2023/12/05 06:04:20;;;;;;;5.73;5.00;;;2.90;99.90;;;;;;5028943;28;20551;-72
2023/12/05 06:06:46;;;;;;;6.90;4.60;;;2.90;99.90;;;;;;5017853;28;20636;-72
2023/12/05 06:09:11;;;;;;;5.87;5.30;;;2.90;99.90;;;;;;5021719;28;20179;-72
2023/12/05 06:11:37;;;;;;;8.80;6.03;;;2.90;99.90;;;;;;5025560;28;20204;-72
2023/12/05 06:14:03;;;;;;;9.77;4.90;;;2.90;99.90;;;;;;5025620;28;20178;-72
2023/12/05 06:16:29;;;;;;;4.40;4.00;;;2.90;99.90;;;;;;5015883;28;20221;-72
2023/12/05 06:18:54;;;;;;;5.93;5.23;;;2.80;99.90;;;;;;5026353;28;20437;-72
2023/12/05 06:21:20;;;;;;;7.00;5.90;;;2.90;99.90;;;;;;5029428;28;20472;-72
2023/12/05 06:23:45;;;;;;;5.07;4.60;;;2.90;99.90;;;;;;5014053;28;20187;-72
2023/12/05 06:26:11;;;;;;;8.93;4.70;;;2.90;99.90;;;;;;5022763;28;20171;-72
2023/12/05 06:28:37;;;;;;;5.03;4.33;;;2.90;99.90;;;;;;5015083;28;20175;-72
2023/12/05 06:31:02;;;;;;;5.30;4.33;;;2.90;99.90;;;;;;5020548;28;20194;-72
2023/12/05 06:33:28;;;;;;;5.40;4.33;;;2.90;99.90;;;;;;5019247;28;20198;-72
2023/12/05 06:35:53;;;;;;;10.73;4.50;;;2.90;99.90;;;;;;5013751;28;20198;-72
2023/12/05 06:38:19;;;;;;;13.97;5.20;;;2.90;99.90;;;;;;5018520;28;20186;-72
2023/12/05 06:40:44;;;;;;;8.87;4.53;;;2.80;99.90;;;;;;5019326;28;20199;-72
2023/12/05 06:43:10;;;;;;;5.33;4.57;;;2.80;99.90;;;;;;5014799;28;20195;-72
2023/12/05 06:45:35;;;;;;;4.03;3.53;;;2.80;99.90;;;;;;5014047;28;20657;-72
2023/12/05 06:48:01;;;;;;;7.03;4.40;;;2.80;99.90;;;;;;5018023;28;20286;-72
2023/12/05 06:50:27;;;;;;;4.63;3.80;;;2.80;99.90;;;;;;5016188;28;20194;-72
2023/12/05 06:52:57;;;;;;;15.47;4.63;;;2.90;99.90;;;;;;5014047;28;20739;-72
2023/12/05 06:55:23;;;;;;;6.93;4.00;;;2.80;99.90;;;;;;5018282;28;20224;-72
2023/12/05 06:57:48;;;;;;;6.63;4.70;;;2.90;99.90;;;;;;5021156;28;20811;-72
2023/12/05 07:00:14;;;;;;;6.57;3.60;;;2.90;99.90;;;;;;5013023;28;20877;-72
2023/12/05 07:02:39;;;;;;;5.53;3.80;;;2.90;99.90;;;;;;5016811;28;20225;-74
2023/12/05 07:05:05;;;;;;;8.17;4.07;;;2.90;99.90;;;;;;5012711;28;20183;-74
2023/12/05 07:07:31;;;;;;;4.03;3.10;;;2.90;99.90;;;;;;5022037;28;20168;-74
2023/12/05 07:09:56;;;;;;;4.77;4.23;;;2.90;99.90;;;;;;5019876;28;20190;-74
2023/12/05 07:12:22;;;;;;;7.00;3.83;;;3.00;99.90;;;;;;5011285;28;20848;-75
2023/12/05 07:14:47;;;;;;;4.93;3.53;;;2.90;99.90;;;;;;5014274;28;20265;-75
2023/12/05 07:17:13;;;;;;;4.23;3.83;;;3.00;99.90;;;;;;5020950;28;20205;-73
2023/12/05 07:19:38;;;;;;;3.87;3.40;;;3.00;99.90;;;;;;5020938;28;20181;-72
2023/12/05 07:22:04;;;;;;;5.80;3.37;;;3.00;99.90;;;;;;5023472;28;20210;-72
2023/12/05 07:24:29;;;;;;;7.20;3.30;;;3.00;99.90;;;;;;5020762;28;20176;-71
2023/12/05 07:26:56;;;;;;;3.63;3.20;;;3.00;99.90;;;;;;5013465;28;20629;-73
2023/12/05 07:29:21;;;;;;;4.83;3.37;;;3.10;99.90;;;;;;5014700;28;20233;-72
2023/12/05 07:31:47;;;;;;;4.23;2.77;;;3.10;99.90;;;;;;5028245;28;20444;-73
2023/12/05 07:34:12;;;;;;;11.37;3.83;;;3.00;99.90;;;;;;5024587;28;20186;-72
2023/12/05 07:36:41;;;;;;;3.87;3.13;;;3.00;99.90;;;;;;5033263;28;20174;-72
2023/12/05 07:39:09;;;;;;;4.97;3.40;;;3.10;99.90;;;;;;5023920;28;20182;-72
2023/12/05 07:41:35;;;;;;;3.30;3.00;;;3.30;99.90;;;;;;5020670;28;20466;-71
2023/12/05 07:44:00;;;;;;;3.50;3.20;;;3.80;99.90;;;;;;5018440;28;20512;-71
2023/12/05 07:46:26;;;;;;;4.87;2.47;;;4.40;99.90;;;;;;5016863;28;20167;-72
2023/12/05 07:48:52;;;;;;;4.83;2.80;;;4.90;99.90;;;;;;5018036;28;20229;-76
2023/12/05 07:51:18;;;;;;;4.20;2.37;;;5.10;99.90;;;;;;5020684;28;20460;-72
2023/12/05 07:53:44;;;;;;;3.23;2.40;;;5.10;99.90;;;;;;5014973;28;20245;-71
2023/12/05 07:56:10;;;;;;;3.03;2.27;;;5.30;99.90;;;;;;5016389;28;20282;-73
2023/12/05 07:58:36;;;;;;;5.33;3.70;;;5.30;99.90;;;;;;5020013;28;21001;-71
2023/12/05 08:01:01;;;;;;;6.10;3.47;;;5.50;99.90;;;;;;5010614;28;20556;-73
2023/12/05 08:03:28;;;;;;;4.73;2.70;;;5.60;99.90;;;;;;5011136;28;20221;-74
2023/12/05 08:05:54;;;;;;;4.30;2.10;;;6.10;99.90;;;;;;5013704;28;20670;-74
2023/12/05 08:08:20;;;;;;;5.07;2.60;;;6.70;99.90;;;;;;5015205;28;20433;-73
2023/12/05 08:10:46;;;;;;;3.53;1.90;;;7.40;99.90;;;;;;5018948;28;20825;-73
2023/12/05 08:13:12;;;;;;;2.70;2.50;;;7.90;99.90;;;;;;5020212;28;20227;-73
2023/12/05 08:15:37;;;;;;;2.40;2.20;;;8.00;99.90;;;;;;5020073;28;20976;-74
2023/12/05 08:18:03;;;;;;;4.00;2.03;;;8.10;99.90;;;;;;5016932;28;20189;-73
2023/12/05 08:20:28;;;;;;;2.00;1.80;;;8.00;99.90;;;;;;5019808;28;20282;-74
2023/12/05 08:22:54;;;;;;;5.63;1.87;;;8.10;99.90;;;;;;5010120;28;20207;-74
2023/12/05 08:25:20;;;;;;;2.53;1.90;;;8.20;99.90;;;;;;5009450;28;20182;-73
2023/12/05 08:27:45;;;;;;;4.37;2.30;;;8.20;99.90;;;;;;5019367;28;20220;-73
2023/12/05 08:30:11;;;;;;;3.60;2.50;;;8.10;99.90;;;;;;5011435;28;20187;-74
2023/12/05 08:32:37;;;;;;;2.77;2.50;;;8.20;99.90;;;;;;5019808;28;20203;-72
2023/12/05 08:35:03;;;;;;;3.20;3.00;;;8.40;99.90;;;;;;5013399;28;20450;-73
2023/12/05 08:37:31;;;;;;;4.07;1.90;;;8.40;99.90;;;;;;5021685;28;20742;-74
2023/12/05 08:39:57;;;;;;;4.50;2.00;;;8.50;99.90;;;;;;5021559;28;20863;-73
2023/12/05 08:42:22;;;;;;;2.40;1.50;;;8.60;99.90;;;;;;5011409;28;20472;-73
2023/12/05 08:44:48;;;;;;;2.00;1.53;;;8.60;99.90;;;;;;5022527;28;20179;-73
2023/12/05 08:47:13;;;;;;;1.87;1.50;;;8.80;99.90;;;;;;5016700;28;20214;-72
2023/12/05 08:49:39;;;;;;;4.23;2.20;;;9.00;99.90;;;;;;5015810;28;20183;-71
2023/12/05 08:52:05;;;;;;;3.97;2.10;;;7.70;99.90;;;;;;5011437;28;20217;-73
2023/12/05 08:54:30;;;;;;;6.50;2.00;;;6.90;99.90;;;;;;5006911;28;20195;-73
2023/12/05 08:56:56;;;;;;;3.70;1.63;;;7.00;99.90;;;;;;5021469;28;20182;-72
2023/12/05 08:59:21;;;;;;;1.93;1.70;;;7.20;99.90;;;;;;5017573;28;20616;-72
2023/12/05 09:01:47;;;;;;;1.60;1.50;;;7.30;99.90;;;;;;5016847;28;21753;-73
2023/12/05 09:04:13;;;;;;;5.90;2.00;;;8.00;99.90;;;;;;5013034;28;20207;-73
2023/12/05 09:06:38;;;;;;;4.47;2.00;;;8.60;99.90;;;;;;5018739;28;20470;-73
2023/12/05 09:09:04;;;;;;;3.43;1.67;;;9.60;99.90;;;;;;5020204;28;20186;-74
2023/12/05 09:11:30;;;;;;;3.53;1.63;;;10.20;99.90;;;;;;5020809;28;20181;-73
2023/12/05 09:13:55;;;;;;;1.93;1.77;;;10.50;99.90;;;;;;5014491;28;20214;-73
2023/12/05 09:16:21;;;;;;;3.13;1.60;;;10.20;99.90;;;;;;5014456;28;20189;-72
2023/12/05 09:18:47;;;;;;;3.73;1.50;;;10.00;99.90;;;;;;5012999;28;20187;-73
2023/12/05 09:21:12;;;;;;;4.00;1.40;;;10.30;99.90;;;;;;5015176;28;20457;-73
2023/12/05 09:23:38;;;;;;;2.53;1.27;;;11.00;99.90;;;;;;5014349;28;20195;-72
2023/12/05 09:26:04;;;;;;;4.50;1.67;;;11.00;99.90;;;;;;5018947;28;20190;-70
2023/12/05 09:28:32;;;;;;;4.63;1.63;;;10.70;99.90;;;;;;5009871;28;20442;-72
2023/12/05 09:30:57;;;;;;;2.10;1.57;;;10.00;99.90;;;;;;5013568;28;20213;-70
2023/12/05 09:33:23;;;;;;;1.73;1.40;;;8.80;99.90;;;;;;5012819;28;20481;-72
2023/12/05 09:35:48;;;;;;;1.50;1.40;;;7.70;99.90;;;;;;5011630;28;20258;-71
2023/12/05 09:38:14;;;;;;;1.60;1.37;;;6.90;99.90;;;;;;5013236;28;20213;-69
2023/12/05 09:40:39;;;;;;;2.27;1.33;;;6.50;99.90;;;;;;5013577;28;20209;-71
2023/12/05 09:43:07;;;;;;;2.60;1.83;;;6.30;99.90;;;;;;5014264;28;20325;-73
2023/12/05 09:45:37;;;;;;;1.47;1.37;;;6.40;99.90;;;;;;5009477;28;20171;-70
2023/12/05 09:48:05;;;;;;;4.17;1.87;;;6.30;99.90;;;;;;5013725;28;20927;-71
2023/12/05 09:50:32;;;;;;;3.33;2.10;;;6.30;99.90;;;;;;5017116;28;20451;-71
2023/12/05 09:53:00;;;;;;;1.47;1.23;;;6.50;99.90;;;;;;5018583;28;20592;-71
2023/12/05 09:55:26;;;;;;;3.23;1.80;;;6.90;99.90;;;;;;5021562;28;20465;-72
2023/12/05 09:57:52;;;;;;;1.80;1.60;;;7.70;99.90;;;;;;5025212;28;20519;-71
2023/12/05 10:00:18;;;;;;;1.63;1.40;;;8.30;99.90;;;;;;5011709;28;20763;-71
2023/12/05 10:02:46;;;;;;;2.20;1.47;;;8.50;99.90;;;;;;5012101;28;20556;-71
2023/12/05 10:05:15;;;;;;;1.60;1.50;;;8.90;99.90;;;;;;5018846;28;20182;-71
2023/12/05 10:07:42;;;;;;;3.27;1.93;;;8.90;99.90;;;;;;5016033;28;20919;-71
2023/12/05 10:10:10;;;;;;;3.10;1.80;;;8.50;99.90;;;;;;5021047;28;20511;-72
2023/12/05 10:12:36;;;;;;;2.83;1.57;;;8.00;99.90;;;;;;5018397;28;20445;-71
2023/12/05 10:15:02;;;;;;;5.27;1.70;;;7.50;99.90;;;;;;5019939;28;20417;-72
2023/12/05 10:17:29;;;;;;;1.60;1.50;;;7.20;99.90;;;;;;5016090;28;20433;-72
2023/12/05 10:19:55;;;;;;;2.13;2.03;;;8.20;99.90;;;;;;5012969;28;20487;-72
2023/12/05 10:22:21;;;;;;;2.40;1.53;;;9.90;99.90;;;;;;5017101;28;20469;-72
2023/12/05 10:24:48;;;;;;;2.00;1.80;;;11.40;99.90;;;;;;5008693;28;20179;-72
2023/12/05 10:27:15;;;;;;;3.33;1.50;;;11.80;99.90;;;;;;5012888;28;20576;-72
2023/12/05 10:29:42;;;;;;;1.87;1.77;;;11.70;99.90;;;;;;5026210;28;20496;-72
2023/12/05 10:32:10;;;;;;;1.87;1.40;;;11.40;99.90;;;;;;5022514;28;20495;-72
2023/12/05 10:34:48;;;;;;;3.43;1.60;;;11.10;99.90;;;;;;5012713;28;20437;-72
2023/12/05 10:37:14;;;;;;;1.43;1.33;;;10.70;99.90;;;;;;5015691;28;20491;-72
2023/12/05 10:39:40;;;;;;;1.70;1.60;;;10.90;99.90;;;;;;5014196;28;20445;-72
2023/12/05 10:42:07;;;;;;;1.70;1.60;;;11.30;99.90;;;;;;5015564;28;20533;-73
2023/12/05 10:44:40;;;;;;;1.63;1.53;;;12.20;99.90;;;;;;5016825;28;20176;-72
2023/12/05 10:47:06;;;;;;;3.23;1.83;;;12.60;99.90;;;;;;5015912;28;20437;-72
2023/12/05 10:49:34;;;;;;;1.63;1.53;;;13.30;99.90;;;;;;5025179;28;20468;-71
2023/12/05 10:52:02;;;;;;;2.60;1.80;;;13.30;99.90;;;;;;5021778;28;20479;-71
2023/12/05 10:54:28;;;;;;;3.43;1.30;;;13.30;99.90;;;;;;5020578;28;20434;-72
2023/12/05 10:56:58;;;;;;;3.60;2.63;;;13.40;99.90;;;;;;5021288;28;20441;-73
2023/12/05 10:59:26;;;;;;;2.37;1.33;;;14.40;99.90;;;;;;5012969;28;20183;-72
2023/12/05 11:01:58;;;;;;;2.43;1.37;;;14.40;99.90;;;;;;5012648;28;20473;-72
2023/12/05 11:04:24;;;;;;;3.43;1.70;;;14.10;99.90;;;;;;5019459;28;20449;-72
2023/12/05 11:06:52;;;;;;;1.70;1.60;;;14.10;99.90;;;;;;5017100;28;20434;-72
2023/12/05 11:09:18;;;;;;;1.80;1.70;;;15.10;99.90;;;;;;5019675;28;20942;-73
2023/12/05 11:11:48;;;;;;;2.10;1.93;;;15.70;97.20;;;;;;5020582;28;20950;-73
2023/12/05 11:14:14;;;;;;;1.93;1.83;;;15.10;96.50;;;;;;5016217;28;20430;-74
2023/12/05 11:16:52;;;;;;;2.83;2.07;;;14.70;98.90;;;;;;5013892;28;20430;-74
2023/12/05 11:19:43;;;;;;;2.93;1.27;;;14.30;99.50;;;;;;5024750;28;20433;-73
2023/12/05 11:22:17;;;;;;;2.60;1.53;;;14.90;97.90;;;;;;5012107;28;20473;-72
2023/12/05 11:25:01;;;;;;;2.27;1.80;;;15.00;97.60;;;;;;5022548;28;20468;-72
2023/12/05 11:27:43;;;;;;;1.80;1.50;;;15.60;93.50;;;;;;5020894;28;20437;-73
2023/12/05 11:30:43;;;;;;;1.97;1.80;;;15.40;94.10;;;;;;5017713;28;20441;-73
2023/12/05 11:33:41;;;;;;;1.83;1.73;;;15.30;95.70;;;;;;5014005;28;20450;-71
2023/12/05 11:36:32;;;;;;;4.20;2.53;;;15.50;94.60;;;;;;5022327;28;20436;-72
2023/12/05 11:38:59;;;;;;;2.10;2.00;;;16.10;92.20;;;;;;5015860;28;20438;-71
2023/12/05 11:41:26;;;;;;;2.10;1.67;;;15.20;94.00;;;;;;5018150;28;20440;-73
2023/12/05 11:44:11;;;;;;;2.77;2.17;;;15.60;92.90;;;;;;5014664;28;20429;-71
2023/12/05 11:46:36;;;;;;;2.17;1.97;;;15.90;93.10;;;;;;5007763;28;20442;-71
2023/12/05 11:49:03;;;;;;;3.90;2.20;;;15.90;92.60;;;;;;5018233;28;21016;-72
2023/12/05 11:51:32;;;;;;;2.93;2.00;;;16.00;91.80;;;;;;5019122;28;20551;-75
2023/12/05 11:54:01;;;;;;;2.90;1.77;;;16.40;90.90;;;;;;5022804;28;20494;-73
2023/12/05 11:56:28;;;;;;;2.50;1.60;;;15.90;91.90;;;;;;5020733;28;20448;-73
2023/12/05 11:59:13;;;;;;;3.77;1.77;;;16.30;90.30;;;;;;5021070;28;20433;-73
2023/12/05 12:01:43;;;;;;;2.70;1.40;;;15.80;91.10;;;;;;5010720;28;20974;-73
2023/12/05 12:04:34;;;;;;;1.90;1.63;;;15.60;94.30;;;;;;5014221;28;20453;-73
2023/12/05 12:07:00;;;;;;;2.37;1.80;;;15.80;92.10;;;;;;5008072;28;20429;-72
2023/12/05 12:09:26;;;;;;;2.10;1.90;;;16.10;89.70;;;;;;5012110;28;20767;-73
2023/12/05 12:11:53;;;;;;;1.70;1.60;;;16.00;90.70;;;;;;5018450;28;20216;-73
2023/12/05 12:14:19;;;;;;;1.63;1.53;;;16.70;90.00;;;;;;5019998;28;20664;-71
2023/12/05 12:16:46;;;;;;;2.07;1.83;;;15.50;90.40;;;;;;5013010;28;20434;-73
2023/12/05 12:19:12;;;;;;;2.00;1.80;;;14.10;95.10;;;;;;5021129;28;20473;-73
2023/12/05 12:21:45;;;;;;;1.30;1.20;;;13.50;99.40;;;;;;5024124;28;20485;-73
2023/12/05 12:24:21;;;;;;;2.50;1.80;;;13.00;98.90;;;;;;5019525;28;20266;-72
2023/12/05 12:26:53;;;;;;;5.47;1.83;;;12.60;99.90;;;;;;5011918;28;20437;-73
2023/12/05 12:29:19;;;;;;;3.33;1.60;;;12.20;99.90;;;;;;5014914;28;20439;-73
2023/12/05 12:31:45;;;;;;;2.07;1.97;;;12.60;99.90;;;;;;5018535;28;20969;-73
2023/12/05 12:34:21;;;;;;;1.93;1.30;;;14.10;99.70;;;;;;5019009;28;20438;-70
2023/12/05 12:36:48;;;;;;;1.53;1.37;;;15.20;93.80;;;;;;5007726;28;20182;-71
2023/12/05 12:39:16;;;;;;;2.00;1.70;;;15.70;91.90;;;;;;5019925;28;20807;-71
2023/12/05 12:41:41;;;;;;;1.73;1.63;;;15.70;90.30;;;;;;5010706;28;20458;-71
2023/12/05 12:44:09;;;;;;;3.10;1.43;;;15.50;90.90;;;;;;5018299;28;20836;-71
2023/12/05 12:46:35;;;;;;;1.80;1.70;;;15.40;92.70;;;;;;5013612;28;20233;-71
2023/12/05 12:49:02;;;;;;;1.57;1.40;;;15.20;92.50;;;;;;5020129;28;20441;-71
2023/12/05 12:51:30;;;;;;;1.70;1.60;;;15.80;92.20;;;;;;5012312;28;20479;-71
2023/12/05 12:53:56;;;;;;;2.17;1.57;;;16.10;90.20;;;;;;5012529;28;20492;-70